createdAt,value
2022-12-31T00:00:16.470Z,100246.41
2022-12-31T00:02:43.992Z,100250.72
2022-12-31T00:05:11.574Z,100243.78
2022-12-31T00:10:05.035Z,100242.03
2022-12-31T00:12:31.958Z,100246.31
2022-12-31T00:14:59.153Z,100249.78
2022-12-31T00:17:26.444Z,100253.22
2022-12-31T00:19:53.705Z,100263.56
2022-12-31T00:22:21.023Z,100255.75
2022-12-31T00:24:48.021Z,100260.06
2022-12-31T00:27:15.332Z,100268.72
2022-12-31T00:29:42.391Z,100268.69
2022-12-31T00:32:09.555Z,100266.06
2022-12-31T00:34:36.661Z,100272.16
2022-12-31T00:37:04.731Z,100277.34
2022-12-31T00:39:31.772Z,100279.97
2022-12-31T00:41:58.880Z,100280.84
2022-12-31T00:44:25.846Z,100282.59
2022-12-31T00:46:53.020Z,100280.84
2022-12-31T00:49:19.908Z,100281.69
2022-12-31T00:51:47.476Z,100286.06
2022-12-31T00:54:15.310Z,100284.38
2022-12-31T00:56:42.280Z,100293.97
2022-12-31T00:59:09.249Z,100289.66
2022-12-31T01:01:39.682Z,100299.22
2022-12-31T01:04:13.036Z,100289.66
2022-12-31T01:06:41.009Z,100284.47
2022-12-31T01:09:09.091Z,100293.16
2022-12-31T01:11:36.368Z,100287.94
2022-12-31T01:14:07.704Z,100285.28
2022-12-31T01:16:42.125Z,100284.38
2022-12-31T01:19:12.614Z,100292.13
2022-12-31T01:21:41.111Z,100299.00
2022-12-31T01:24:09.426Z,100304.16
2022-12-31T01:26:37.564Z,100305.03
2022-12-31T01:29:06.029Z,100300.69
2022-12-31T01:31:38.006Z,100293.78
2022-12-31T01:34:07.640Z,100294.69
2022-12-31T01:36:36.465Z,100294.72
2022-12-31T01:39:06.956Z,100293.91
2022-12-31T01:41:38.992Z,100295.69
2022-12-31T01:44:11.972Z,100296.53
2022-12-31T01:46:47.612Z,100294.78
2022-12-31T01:49:17.449Z,100287.84
2022-12-31T01:51:52.669Z,100299.13
2022-12-31T01:54:22.823Z,100306.00
2022-12-31T01:56:52.743Z,100307.66
2022-12-31T01:59:22.568Z,100308.53
2022-12-31T02:01:53.073Z,100307.63
2022-12-31T02:04:25.470Z,100316.25
2022-12-31T02:06:57.469Z,100323.19
2022-12-31T02:09:26.099Z,100319.66
2022-12-31T02:11:53.865Z,100325.66
2022-12-31T02:14:29.077Z,100319.41
2022-12-31T02:17:34.974Z,100322.69
2022-12-31T02:20:38.697Z,100318.97
2022-12-31T02:23:42.382Z,100311.84
2022-12-31T02:26:31.496Z,100324.72
2022-12-31T02:29:42.882Z,100326.38
2022-12-31T02:32:17.834Z,100329.81
2022-12-31T02:34:59.294Z,100328.91
2022-12-31T02:37:30.547Z,100328.00
2022-12-31T02:39:58.986Z,100327.03
2022-12-31T02:42:26.046Z,100323.50
2022-12-31T02:44:53.071Z,100327.72
2022-12-31T02:47:34.850Z,100329.41
2022-12-31T02:50:11.046Z,100324.25
2022-12-31T02:53:19.247Z,100332.00
2022-12-31T02:56:21.666Z,100333.59
2022-12-31T02:59:27.384Z,100330.06
2022-12-31T03:02:14.953Z,100332.53
2022-12-31T03:04:54.285Z,100331.63
2022-12-31T03:07:24.522Z,100330.66
2022-12-31T03:09:51.551Z,100333.22
2022-12-31T03:12:40.478Z,100346.97
2022-12-31T03:15:20.297Z,100344.41
2022-12-31T03:17:59.950Z,100345.22
2022-12-31T03:20:50.833Z,100340.09
2022-12-31T03:23:24.927Z,100345.38
2022-12-31T03:25:53.579Z,100346.22
2022-12-31T03:28:24.336Z,100346.19
2022-12-31T03:31:03.021Z,100347.00
2022-12-31T03:33:37.005Z,100345.25
2022-12-31T03:36:10.642Z,100346.94
2022-12-31T03:38:37.761Z,100340.03
2022-12-31T03:41:04.946Z,100338.31
2022-12-31T03:43:32.011Z,100344.41
2022-12-31T03:46:01.281Z,100343.63
2022-12-31T03:48:28.772Z,100345.38
2022-12-31T03:50:55.747Z,100351.41
2022-12-31T03:53:22.838Z,100353.97
2022-12-31T03:55:53.636Z,100353.91
2022-12-31T03:58:21.945Z,100351.25
2022-12-31T04:00:49.502Z,100348.63
2022-12-31T04:03:16.748Z,100345.19
2022-12-31T04:05:43.807Z,100352.94
2022-12-31T04:08:10.857Z,100356.44
2022-12-31T04:10:37.855Z,100357.31
2022-12-31T04:13:06.232Z,100355.56
2022-12-31T04:15:33.255Z,100348.50
2022-12-31T04:18:00.435Z,100349.44
2022-12-31T04:20:27.489Z,100358.94
2022-12-31T04:22:54.544Z,100367.63
2022-12-31T04:25:21.513Z,100370.28
2022-12-31T04:27:48.641Z,100370.28
2022-12-31T04:30:15.805Z,100369.47
2022-12-31T04:32:42.834Z,100374.69
2022-12-31T04:35:11.009Z,100386.75
2022-12-31T04:37:38.116Z,100379.84
2022-12-31T04:40:07.101Z,100390.28
2022-12-31T04:42:35.291Z,100386.91
2022-12-31T04:45:02.331Z,100390.34
2022-12-31T04:47:30.166Z,100388.63
2022-12-31T04:49:57.496Z,100387.78
2022-12-31T04:52:24.848Z,100381.75
2022-12-31T04:54:51.870Z,100389.50
2022-12-31T04:57:18.939Z,100387.75
2022-12-31T04:59:46.080Z,100391.09
2022-12-31T05:02:13.464Z,100397.16
2022-12-31T05:04:40.722Z,100390.16
2022-12-31T05:07:08.009Z,100404.78
2022-12-31T05:09:35.368Z,100404.69
2022-12-31T05:12:02.375Z,100394.31
2022-12-31T05:14:29.509Z,100403.91
2022-12-31T05:16:59.693Z,100413.47
2022-12-31T05:19:27.095Z,100415.31
2022-12-31T05:22:17.458Z,100418.88
2022-12-31T05:24:44.826Z,100403.41
2022-12-31T05:27:12.083Z,100400.91
2022-12-31T05:29:39.210Z,100403.59
2022-12-31T05:32:06.452Z,100407.13
2022-12-31T05:34:33.533Z,100418.44
2022-12-31T05:37:00.593Z,100410.78
2022-12-31T05:39:27.674Z,100405.69
2022-12-31T05:41:54.995Z,100408.34
2022-12-31T05:44:22.147Z,100403.16
2022-12-31T05:46:49.235Z,100405.78
2022-12-31T05:49:16.703Z,100406.81
2022-12-31T05:51:44.042Z,100401.72
2022-12-31T05:54:12.603Z,100408.84
2022-12-31T05:56:39.925Z,100418.41
2022-12-31T05:59:07.138Z,100409.13
2022-12-31T06:01:34.528Z,100407.44
2022-12-31T06:04:01.812Z,100410.13
2022-12-31T06:06:28.785Z,100411.13
2022-12-31T06:08:56.281Z,100405.94
2022-12-31T06:11:23.541Z,100405.13
2022-12-31T06:13:51.099Z,100410.25
2022-12-31T06:16:18.470Z,100415.41
2022-12-31T06:18:50.650Z,100420.75
2022-12-31T06:21:19.907Z,100421.63
2022-12-31T06:23:48.008Z,100422.56
2022-12-31T06:26:16.565Z,100421.72
2022-12-31T06:28:43.717Z,100424.25
2022-12-31T06:31:13.737Z,100427.81
2022-12-31T06:33:41.727Z,100427.84
2022-12-31T06:36:12.682Z,100423.59
2022-12-31T06:38:41.317Z,100421.09
2022-12-31T06:41:14.087Z,100415.94
2022-12-31T06:43:42.202Z,100416.03
2022-12-31T06:46:12.514Z,100410.91
2022-12-31T06:48:43.164Z,100425.75
2022-12-31T06:51:17.412Z,100418.00
2022-12-31T06:53:46.123Z,100418.97
2022-12-31T06:56:26.617Z,100414.72
2022-12-31T06:58:58.501Z,100419.94
2022-12-31T07:01:41.473Z,100414.81
2022-12-31T07:04:31.501Z,100416.66
2022-12-31T07:07:13.254Z,100422.78
2022-12-31T07:09:59.123Z,100425.47
2022-12-31T07:12:52.708Z,100422.94
2022-12-31T07:15:19.904Z,100423.03
2022-12-31T07:18:24.594Z,100423.06
2022-12-31T07:20:52.153Z,100416.22
2022-12-31T07:23:19.864Z,100424.03
2022-12-31T07:26:35.176Z,100423.25
2022-12-31T07:29:23.609Z,100420.81
2022-12-31T07:31:50.770Z,100422.63
2022-12-31T07:34:44.773Z,100416.59
2022-12-31T07:37:23.998Z,100409.59
2022-12-31T07:40:16.225Z,100414.94
2022-12-31T07:42:52.523Z,100415.03
2022-12-31T07:45:35.615Z,100427.31
2022-12-31T07:48:03.367Z,100423.03
2022-12-31T07:50:30.897Z,100421.38
2022-12-31T07:52:58.423Z,100421.47
2022-12-31T07:55:26.258Z,100419.75
2022-12-31T07:58:06.985Z,100422.34
2022-12-31T08:00:34.634Z,100424.06
2022-12-31T08:03:02.111Z,100417.88
2022-12-31T08:06:05.333Z,100412.50
2022-12-31T08:08:33.165Z,100413.97
2022-12-31T08:11:28.483Z,100412.78
2022-12-31T08:14:00.735Z,100406.25
2022-12-31T08:16:29.269Z,100414.56
2022-12-31T08:19:01.104Z,100410.78
2022-12-31T08:21:58.669Z,100402.63
2022-12-31T08:24:27.549Z,100391.84
2022-12-31T08:27:30.022Z,100398.53
2022-12-31T08:30:12.542Z,100397.59
2022-12-31T08:32:53.118Z,100384.13
2022-12-31T08:36:08.723Z,100387.03
2022-12-31T08:39:05.505Z,100379.78
2022-12-31T08:41:42.636Z,100372.19
2022-12-31T08:44:35.315Z,100370.81
2022-12-31T08:47:27.346Z,100366.91
2022-12-31T08:49:55.976Z,100375.88
2022-12-31T08:52:25.884Z,100370.56
2022-12-31T08:54:53.987Z,100381.44
2022-12-31T08:57:37.337Z,100375.19
2022-12-31T09:00:13.476Z,100373.03
2022-12-31T09:03:12.038Z,100371.69
2022-12-31T09:05:53.207Z,100365.19
2022-12-31T09:08:43.608Z,100362.22
2022-12-31T09:11:22.905Z,100357.41
2022-12-31T09:14:14.854Z,100351.16
2022-12-31T09:17:10.974Z,100338.25
2022-12-31T09:19:38.605Z,100343.28
2022-12-31T09:22:06.695Z,100346.72
2022-12-31T09:24:35.690Z,100351.50
2022-12-31T09:27:50.172Z,100349.47
2022-12-31T09:30:19.682Z,100349.84
2022-12-31T09:33:01.273Z,100355.03
2022-12-31T09:35:39.043Z,100345.63
2022-12-31T09:38:31.902Z,100336.69
2022-12-31T09:41:16.721Z,100333.75
2022-12-31T09:44:03.104Z,100324.41
2022-12-31T09:46:59.015Z,100323.31
2022-12-31T09:49:39.707Z,100309.72
2022-12-31T09:52:31.439Z,100289.09
2022-12-31T09:55:07.825Z,100297.81
2022-12-31T09:57:56.614Z,100293.09
2022-12-31T10:00:34.772Z,100283.78
2022-12-31T10:03:22.170Z,100277.75
2022-12-31T10:06:27.396Z,100268.97
2022-12-31T10:09:18.162Z,100254.56
2022-12-31T10:12:06.739Z,100263.09
2022-12-31T10:15:04.230Z,100262.91
2022-12-31T10:17:49.612Z,100258.56
2022-12-31T10:20:54.797Z,100245.63
2022-12-31T10:23:59.743Z,100240.34
2022-12-31T10:26:37.621Z,100243.75
2022-12-31T10:29:47.563Z,100241.41
2022-12-31T10:32:19.814Z,100235.94
2022-12-31T10:35:23.231Z,100225.19
2022-12-31T10:38:00.333Z,100220.50
2022-12-31T10:40:59.678Z,100224.22
2022-12-31T10:44:04.967Z,100216.50
2022-12-31T10:46:55.724Z,100211.47
2022-12-31T10:49:44.393Z,100208.59
2022-12-31T10:52:27.034Z,100206.06
2022-12-31T10:55:04.808Z,100211.91
2022-12-31T10:58:03.829Z,100222.41
2022-12-31T11:00:48.917Z,100217.09
2022-12-31T11:03:40.253Z,100216.16
2022-12-31T11:06:30.729Z,100205.28
2022-12-31T11:09:17.201Z,100199.53
2022-12-31T11:12:11.786Z,100204.28
2022-12-31T11:14:59.398Z,100206.22
2022-12-31T11:17:40.118Z,100204.09
2022-12-31T11:20:37.461Z,100206.38
2022-12-31T11:23:31.821Z,100206.88
2022-12-31T11:25:59.771Z,100205.03
2022-12-31T11:28:59.598Z,100204.28
2022-12-31T11:31:42.202Z,100203.22
2022-12-31T11:34:29.893Z,100203.47
2022-12-31T11:37:17.716Z,100186.22
2022-12-31T11:40:02.514Z,100178.00
2022-12-31T11:42:47.823Z,100175.50
2022-12-31T11:45:23.147Z,100167.22
2022-12-31T11:51:27.274Z,100158.38
2022-12-31T11:54:33.508Z,100177.91
2022-12-31T11:57:25.156Z,100190.69
2022-12-31T12:00:21.744Z,100177.22
2022-12-31T12:02:58.900Z,100168.28
2022-12-31T12:05:28.537Z,100176.13
2022-12-31T12:07:57.398Z,100186.47
2022-12-31T12:10:35.287Z,100178.06
2022-12-31T12:13:13.603Z,100187.94
2022-12-31T12:15:49.874Z,100189.16
2022-12-31T12:18:29.225Z,100178.63
2022-12-31T12:21:14.993Z,100182.59
2022-12-31T12:24:04.021Z,100176.88
2022-12-31T12:26:42.858Z,100191.44
2022-12-31T12:29:16.129Z,100192.63
2022-12-31T12:32:13.732Z,100195.56
2022-12-31T12:34:49.448Z,100189.66
2022-12-31T12:37:36.588Z,100183.91
2022-12-31T12:40:31.413Z,100179.63
2022-12-31T12:43:03.680Z,100175.59
2022-12-31T12:45:51.405Z,100178.38
2022-12-31T12:48:31.616Z,100157.63
2022-12-31T12:51:03.867Z,100159.69
2022-12-31T12:53:57.770Z,100168.69
2022-12-31T12:56:31.455Z,100171.41
2022-12-31T12:59:36.891Z,100172.28
2022-12-31T13:02:24.368Z,100169.75
2022-12-31T13:05:01.628Z,100171.63
2022-12-31T13:08:06.979Z,100175.97
2022-12-31T13:10:51.156Z,100171.66
2022-12-31T13:13:43.802Z,100158.56
2022-12-31T13:16:35.640Z,100154.88
2022-12-31T13:19:17.166Z,100153.06
2022-12-31T13:21:47.606Z,100155.69
2022-12-31T13:24:15.581Z,100154.00
2022-12-31T13:26:55.157Z,100165.50
2022-12-31T13:29:28.456Z,100160.34
2022-12-31T13:31:57.833Z,100155.28
2022-12-31T13:34:39.880Z,100164.25
2022-12-31T13:37:35.020Z,100161.03
2022-12-31T13:40:13.763Z,100163.06
2022-12-31T13:42:53.246Z,100164.97
2022-12-31T13:45:32.782Z,100160.66
2022-12-31T13:48:22.797Z,100173.06
2022-12-31T13:51:02.057Z,100170.56
2022-12-31T13:53:38.721Z,100169.75
2022-12-31T13:56:24.579Z,100166.34
2022-12-31T13:59:04.555Z,100166.38
2022-12-31T14:02:04.032Z,100158.56
2022-12-31T14:04:40.835Z,100161.13
2022-12-31T14:07:26.645Z,100162.91
2022-12-31T14:09:59.968Z,100155.97
2022-12-31T14:12:57.311Z,100156.03
2022-12-31T14:15:33.892Z,100157.78
2022-12-31T14:18:31.472Z,100149.16
2022-12-31T14:21:03.219Z,100147.38
2022-12-31T14:23:53.884Z,100146.47
2022-12-31T14:26:38.603Z,100139.41
2022-12-31T14:29:19.268Z,100141.22
2022-12-31T14:31:49.607Z,100141.22
2022-12-31T14:34:36.277Z,100146.53
2022-12-31T14:37:28.475Z,100149.13
2022-12-31T14:40:08.133Z,100142.19
2022-12-31T14:43:11.186Z,100136.94
2022-12-31T14:46:00.279Z,100138.72
2022-12-31T14:48:43.484Z,100149.25
2022-12-31T14:51:13.078Z,100146.66
2022-12-31T14:53:40.405Z,100136.19
2022-12-31T14:56:30.153Z,100136.13
2022-12-31T14:59:01.939Z,100140.56
2022-12-31T15:01:29.954Z,100136.09
2022-12-31T15:03:58.406Z,100120.41
2022-12-31T15:06:50.077Z,100136.97
2022-12-31T15:09:17.099Z,100138.78
2022-12-31T15:12:11.999Z,100137.84
2022-12-31T15:14:42.006Z,100141.44
2022-12-31T15:17:18.046Z,100142.44
2022-12-31T15:19:53.169Z,100140.75
2022-12-31T15:22:36.910Z,100144.41
2022-12-31T15:25:24.491Z,100139.28
2022-12-31T15:27:53.316Z,100129.78
2022-12-31T15:30:32.929Z,100135.97
2022-12-31T15:33:05.462Z,100136.00
2022-12-31T15:35:45.781Z,100144.81
2022-12-31T15:38:15.580Z,100157.00
2022-12-31T15:40:51.076Z,100156.16
2022-12-31T15:43:33.078Z,100155.28
2022-12-31T15:46:00.901Z,100154.34
2022-12-31T15:48:38.622Z,100151.66
2022-12-31T15:51:08.114Z,100156.81
2022-12-31T15:53:41.654Z,100155.91
2022-12-31T15:56:19.161Z,100159.41
2022-12-31T15:58:47.760Z,100155.91
2022-12-31T16:01:21.176Z,100145.44
2022-12-31T16:03:55.842Z,100148.03
2022-12-31T16:06:23.365Z,100145.53
2022-12-31T16:08:50.905Z,100130.69
2022-12-31T16:11:18.912Z,100130.75
2022-12-31T16:13:49.956Z,100130.72
2022-12-31T16:16:22.052Z,100128.19
2022-12-31T16:18:53.358Z,100120.28
2022-12-31T16:21:34.403Z,100120.25
2022-12-31T16:24:07.690Z,100101.91
2022-12-31T16:26:48.800Z,100104.59
2022-12-31T16:29:19.337Z,100109.94
2022-12-31T16:31:48.622Z,100112.56
2022-12-31T16:34:19.652Z,100112.53
2022-12-31T16:37:07.809Z,100116.91
2022-12-31T16:39:39.877Z,100104.78
2022-12-31T16:42:19.048Z,100110.91
2022-12-31T16:44:47.618Z,100113.50
2022-12-31T16:47:24.250Z,100124.03
2022-12-31T16:50:01.774Z,100117.03
2022-12-31T16:52:36.566Z,100124.91
2022-12-31T16:55:10.640Z,100129.28
2022-12-31T16:57:38.552Z,100121.44
2022-12-31T17:00:07.841Z,100128.47
2022-12-31T17:02:39.515Z,100132.03
2022-12-31T17:05:19.945Z,100126.03
2022-12-31T17:07:47.825Z,100126.09
2022-12-31T17:10:17.089Z,100115.69
2022-12-31T17:13:27.038Z,100112.25
2022-12-31T17:15:43.970Z,100115.78
2022-12-31T17:18:20.164Z,100103.56
2022-12-31T17:20:48.023Z,100108.00
2022-12-31T17:23:25.245Z,100115.00
2022-12-31T17:25:59.621Z,100115.00
2022-12-31T17:28:32.381Z,100105.41
2022-12-31T17:31:01.114Z,100105.41
2022-12-31T17:33:30.883Z,100102.84
2022-12-31T17:36:15.160Z,100104.59
2022-12-31T17:38:42.794Z,100098.47
2022-12-31T17:41:30.090Z,100102.78
2022-12-31T17:43:58.138Z,100111.50
2022-12-31T17:46:25.879Z,100112.34
2022-12-31T17:49:03.075Z,100114.03
2022-12-31T17:51:30.400Z,100113.19
2022-12-31T17:54:00.371Z,100119.22
2022-12-31T17:56:27.540Z,100116.53
2022-12-31T17:58:54.990Z,100118.22
2022-12-31T18:01:23.929Z,100124.28
2022-12-31T18:03:51.293Z,100114.59
2022-12-31T18:06:19.733Z,100103.19
2022-12-31T18:08:47.510Z,100118.00
2022-12-31T18:11:17.682Z,100129.31
2022-12-31T18:13:44.913Z,100123.19
2022-12-31T18:16:12.148Z,100123.19
2022-12-31T18:18:41.190Z,100136.25
2022-12-31T18:21:18.321Z,100158.94
2022-12-31T18:23:47.228Z,100161.50
2022-12-31T18:26:16.780Z,100151.81
2022-12-31T18:28:44.069Z,100157.00
2022-12-31T18:31:16.817Z,100149.91
2022-12-31T18:33:47.054Z,100140.22
2022-12-31T18:36:16.098Z,100127.97
2022-12-31T18:38:43.513Z,100122.63
2022-12-31T18:41:34.888Z,100124.34
2022-12-31T18:44:02.226Z,100122.50
2022-12-31T18:46:29.696Z,100112.03
2022-12-31T18:48:56.773Z,100111.09
2022-12-31T18:51:31.444Z,100103.34
2022-12-31T18:54:00.967Z,100083.16
2022-12-31T18:56:28.400Z,100079.53
2022-12-31T18:58:55.531Z,100062.78
2022-12-31T19:01:35.800Z,100061.88
2022-12-31T19:04:11.441Z,100062.56
2022-12-31T19:06:38.942Z,100066.81
2022-12-31T19:09:13.161Z,100064.06
2022-12-31T19:11:53.304Z,100051.66
2022-12-31T19:14:24.186Z,100053.41
2022-12-31T19:16:53.591Z,100055.06
2022-12-31T19:19:21.335Z,100053.28
2022-12-31T19:21:48.798Z,100062.84
2022-12-31T19:24:19.934Z,100061.16
2022-12-31T19:26:47.671Z,100063.69
2022-12-31T19:29:23.600Z,100058.47
2022-12-31T19:31:51.423Z,100062.78
2022-12-31T19:34:18.898Z,100075.13
2022-12-31T19:36:46.319Z,100068.09
2022-12-31T19:39:17.631Z,100062.84
2022-12-31T19:41:46.152Z,100064.59
2022-12-31T19:44:17.929Z,100066.41
2022-12-31T19:46:45.913Z,100056.78
2022-12-31T19:49:14.323Z,100059.31
2022-12-31T19:51:42.733Z,100052.28
2022-12-31T19:54:12.868Z,100050.41
2022-12-31T19:56:40.164Z,100051.16
2022-12-31T19:59:09.754Z,100045.88
2022-12-31T20:01:38.460Z,100037.97
2022-12-31T20:04:05.812Z,100038.81
2022-12-31T20:06:33.028Z,100033.50
2022-12-31T20:09:00.180Z,100032.72
2022-12-31T20:11:27.643Z,100050.25
2022-12-31T20:13:55.423Z,100051.16
2022-12-31T20:16:27.048Z,100047.63
2022-12-31T20:18:55.327Z,100043.16
2022-12-31T20:21:25.748Z,100043.13
2022-12-31T20:23:54.961Z,100049.25
2022-12-31T20:26:24.182Z,100069.34
2022-12-31T20:28:52.245Z,100068.44
2022-12-31T20:31:23.519Z,100071.94
2022-12-31T20:33:50.939Z,100070.19
2022-12-31T20:36:19.075Z,100066.56
2022-12-31T20:38:47.159Z,100088.41
2022-12-31T20:41:17.690Z,100076.03
2022-12-31T20:43:46.153Z,100074.31
2022-12-31T20:46:18.195Z,100077.75
2022-12-31T20:48:47.042Z,100077.69
2022-12-31T20:51:16.868Z,100069.78
2022-12-31T20:53:59.159Z,100067.09
2022-12-31T20:56:28.985Z,100067.09
2022-12-31T20:58:56.492Z,100064.34
2022-12-31T21:01:25.267Z,100064.34
2022-12-31T21:04:09.649Z,100061.75
2022-12-31T21:06:37.092Z,100066.88
2022-12-31T21:09:06.951Z,100060.72
2022-12-31T21:11:53.188Z,100055.50
2022-12-31T21:14:20.597Z,100048.47
2022-12-31T21:16:47.899Z,100047.53
2022-12-31T21:19:15.179Z,100042.31
2022-12-31T21:21:42.229Z,100032.44
2022-12-31T21:24:09.983Z,100036.88
2022-12-31T21:26:36.964Z,100045.66
2022-12-31T21:29:04.447Z,100042.97
2022-12-31T21:31:31.793Z,100050.00
2022-12-31T21:33:59.127Z,100052.53
2022-12-31T21:36:26.599Z,100042.88
2022-12-31T21:38:53.923Z,100044.53
2022-12-31T21:41:44.257Z,100040.97
2022-12-31T21:44:11.707Z,100043.72
2022-12-31T21:46:42.620Z,100053.50
2022-12-31T21:49:22.093Z,100035.06
2022-12-31T21:52:08.291Z,100033.34
2022-12-31T21:54:53.907Z,100033.38
2022-12-31T21:57:21.284Z,100026.28
2022-12-31T22:00:40.435Z,100029.03
2022-12-31T22:03:13.973Z,100022.75
2022-12-31T22:06:06.051Z,100016.63
2022-12-31T22:08:33.440Z,100012.22
2022-12-31T22:11:00.646Z,100015.63
2022-12-31T22:13:28.024Z,100023.50
2022-12-31T22:16:03.880Z,100022.63
2022-12-31T22:18:34.677Z,100029.59
2022-12-31T22:21:05.854Z,100021.72
2022-12-31T22:23:34.635Z,100017.34
2022-12-31T22:26:02.976Z,100017.34
2022-12-31T22:28:39.552Z,100022.44
2022-12-31T22:31:11.773Z,100013.84
2022-12-31T22:33:39.516Z,100015.47
2022-12-31T22:36:10.730Z,100028.78
2022-12-31T22:38:38.688Z,100015.66
2022-12-31T22:41:08.796Z,100016.53
2022-12-31T22:43:39.424Z,100006.00
2022-12-31T22:46:08.544Z,100010.16
2022-12-31T22:48:36.050Z,100004.78
2022-12-31T22:51:03.577Z,100014.16
2022-12-31T22:53:30.807Z,100001.00
2022-12-31T22:55:58.841Z,100000.06
2022-12-31T22:58:26.877Z,100004.34
2022-12-31T23:00:54.933Z,100005.97
2022-12-31T23:03:22.577Z,100012.91
2022-12-31T23:05:54.421Z,100014.53
2022-12-31T23:08:23.945Z,100012.66
2022-12-31T23:11:00.597Z,100010.03
2022-12-31T23:13:50.992Z,99994.22
2022-12-31T23:16:38.869Z,99989.88
2022-12-31T23:19:25.898Z,99990.03
2022-12-31T23:22:12.607Z,99975.06
2022-12-31T23:24:40.339Z,99974.97
2022-12-31T23:27:10.112Z,99977.66
2022-12-31T23:29:46.274Z,99982.94
2022-12-31T23:32:16.474Z,99978.69
2022-12-31T23:34:45.597Z,99980.59
2022-12-31T23:37:14.426Z,99978.00
2022-12-31T23:39:42.756Z,99980.75
2022-12-31T23:42:10.808Z,99975.53
2022-12-31T23:44:38.180Z,99974.56
2022-12-31T23:47:08.596Z,99972.03
2022-12-31T23:49:36.198Z,99975.41
2022-12-31T23:52:03.731Z,99967.44
2022-12-31T23:54:32.418Z,99967.34
2022-12-31T23:56:59.911Z,99960.25
2022-12-31T23:59:27.510Z,99963.66
